Whitefish Bay, Wisconsin
Current Conditions -  °F | °C
As of 9:45 AM on Sunday 25 Jan 2015 (Local Time) from KMWC Reporting Station
Overcast Overcast  
Wind Chill: 11°   Ceiling: 5000
Heat Index: 25°   Visibility: 10mi
Dew Point: 16°   Wind: 18mph
Humidity: 69%   Direction: 40°NE
Pressure: 29.9"   Gusts: 26mph
Location:  43.1576°N, 87.9144°W
Report Text: KMWC 251545Z AUTO 04016G23KT 10SM SCT022 OVC050 M04/M09 A2990
Loading
Personal Weather Stations






























Interactive Weather Map New forecast layout! Learn more

10-Day Weather Forecast

Advertisements
Track Severe Weather on mobile